Time,TemperatureF,DewpointF,PressureIn,WindDirection,WindDirectionDegrees,WindSpeedMPH,WindSpeedGustMPH,Humidity,HourlyPrecipIn,Conditions,Clouds,dailyrainin,SoftwareType,DateUTC
2013-03-03 00:00:00,24.1,16.7,30.10,NW,315,0.2,1.1,73,0.00,,,0.00,WUHU216HW,2013-03-03 05:00:00,
2013-03-03 00:05:00,23.9,16.5,30.10,NW,315,0.2,0.4,73,0.00,,,0.00,WUHU216HW,2013-03-03 05:05:00,
2013-03-03 00:10:00,23.9,16.5,30.10,West,270,0.4,1.1,73,0.00,,,0.00,WUHU216HW,2013-03-03 05:10:00,
2013-03-03 00:15:00,24.1,17.0,30.10,NW,315,0.2,1.1,74,0.00,,,0.00,WUHU216HW,2013-03-03 05:15:00,
2013-03-03 00:20:00,24.1,17.0,30.10,NW,315,0.4,0.4,74,0.00,,,0.00,WUHU216HW,2013-03-03 05:20:00,
2013-03-03 00:25:00,24.1,17.0,30.10,NW,315,0.2,0.4,74,0.00,,,0.00,WUHU216HW,2013-03-03 05:25:00,
2013-03-03 00:30:00,24.1,17.3,30.10,NW,315,1.3,1.3,75,0.00,,,0.00,WUHU216HW,2013-03-03 05:30:00,
2013-03-03 00:35:00,24.1,17.3,30.10,NNW,338,0.0,1.3,75,0.00,,,0.00,WUHU216HW,2013-03-03 05:35:00,
2013-03-03 00:40:00,23.9,17.1,30.10,NNW,338,0.4,2.2,75,0.00,,,0.00,WUHU216HW,2013-03-03 05:40:00,
2013-03-03 00:45:00,23.9,17.5,30.10,SW,225,0.0,2.5,76,0.00,,,0.00,WUHU216HW,2013-03-03 05:45:00,
2013-03-03 00:50:00,23.9,17.1,30.10,NNW,338,0.9,2.5,75,0.00,,,0.00,WUHU216HW,2013-03-03 05:50:00,
2013-03-03 00:55:00,24.1,17.3,30.10,NNW,338,0.4,1.6,75,0.00,,,0.00,WUHU216HW,2013-03-03 05:55:00,
2013-03-03 01:00:00,23.9,17.1,30.10,North,0,0.4,1.8,75,0.00,,,0.00,WUHU216HW,2013-03-03 06:00:00,
2013-03-03 01:05:00,23.8,17.0,30.10,NNW,338,0.2,1.8,75,0.00,,,0.00,WUHU216HW,2013-03-03 06:05:00,
2013-03-03 01:10:00,23.8,17.0,30.10,NNW,338,0.0,0.7,75,0.00,,,0.00,WUHU216HW,2013-03-03 06:10:00,
2013-03-03 01:15:00,23.8,17.0,30.10,NNW,338,0.4,0.4,75,0.00,,,0.00,WUHU216HW,2013-03-03 06:15:00,
2013-03-03 01:20:00,23.8,17.0,30.10,North,0,0.0,0.7,75,0.00,,,0.00,WUHU216HW,2013-03-03 06:20:00,
2013-03-03 01:25:00,23.8,17.0,30.11,NW,315,0.2,1.1,75,0.00,,,0.00,WUHU216HW,2013-03-03 06:25:00,
2013-03-03 01:30:00,23.8,17.0,30.11,NNW,338,0.0,1.1,75,0.00,,,0.00,WUHU216HW,2013-03-03 06:30:00,
2013-03-03 01:35:00,23.6,17.1,30.11,North,0,1.6,1.6,76,0.00,,,0.00,WUHU216HW,2013-03-03 06:35:00,
2013-03-03 01:40:00,23.4,16.7,30.10,NNE,23,1.8,1.8,75,0.00,,,0.00,WUHU216HW,2013-03-03 06:40:00,
2013-03-03 01:45:00,23.4,16.7,30.10,North,0,1.1,1.8,75,0.00,,,0.00,WUHU216HW,2013-03-03 06:45:00,
2013-03-03 01:50:00,23.4,16.7,30.10,NNW,338,0.9,1.3,75,0.00,,,0.00,WUHU216HW,2013-03-03 06:50:00,
2013-03-03 01:55:00,23.4,16.3,30.10,North,0,0.4,1.3,74,0.00,,,0.00,WUHU216HW,2013-03-03 06:55:00,
2013-03-03 02:00:00,23.2,16.1,30.10,North,0,1.1,1.3,74,0.00,,,0.00,WUHU216HW,2013-03-03 07:00:00,
2013-03-03 02:05:00,23.0,16.0,30.10,North,0,0.4,1.1,74,0.00,,,0.00,WUHU216HW,2013-03-03 07:05:00,
2013-03-03 02:10:00,23.0,16.0,30.10,NNW,338,0.7,0.7,74,0.00,,,0.00,WUHU216HW,2013-03-03 07:10:00,
2013-03-03 02:15:00,22.9,15.9,30.10,North,0,0.4,1.1,74,0.00,,,0.00,WUHU216HW,2013-03-03 07:15:00,
2013-03-03 02:20:00,23.0,16.0,30.10,NNW,338,0.0,1.1,74,0.00,,,0.00,WUHU216HW,2013-03-03 07:20:00,
2013-03-03 02:25:00,23.2,16.1,30.09,NNW,338,0.2,0.7,74,0.00,,,0.00,WUHU216HW,2013-03-03 07:25:00,
2013-03-03 02:30:00,23.0,16.0,30.09,WNW,293,0.4,0.7,74,0.00,,,0.00,WUHU216HW,2013-03-03 07:30:00,
2013-03-03 02:35:00,23.0,16.0,30.09,NNE,23,0.4,0.7,74,0.00,,,0.00,WUHU216HW,2013-03-03 07:35:00,
2013-03-03 02:40:00,23.0,16.0,30.09,NNW,338,0.0,0.7,74,0.00,,,0.00,WUHU216HW,2013-03-03 07:40:00,
2013-03-03 02:45:00,22.9,15.9,30.09,NNW,338,0.4,0.7,74,0.00,,,0.00,WUHU216HW,2013-03-03 07:45:00,
2013-03-03 02:50:00,22.9,15.9,30.09,NW,315,0.4,0.9,74,0.00,,,0.00,WUHU216HW,2013-03-03 07:50:00,
2013-03-03 02:55:00,22.9,15.9,30.09,NNW,338,0.2,0.9,74,0.00,,,0.00,WUHU216HW,2013-03-03 07:55:00,
2013-03-03 03:00:00,23.0,16.0,30.08,North,0,0.9,0.9,74,0.00,,,0.00,WUHU216HW,2013-03-03 08:00:00,
2013-03-03 03:05:00,23.0,16.0,30.08,NNW,338,0.4,0.9,74,0.00,,,0.00,WUHU216HW,2013-03-03 08:05:00,
2013-03-03 03:10:00,23.0,16.0,30.08,NW,315,0.0,0.9,74,0.00,,,0.00,WUHU216HW,2013-03-03 08:10:00,
2013-03-03 03:15:00,23.0,16.0,30.08,NNW,338,0.0,0.9,74,0.00,,,0.00,WUHU216HW,2013-03-03 08:15:00,
2013-03-03 03:20:00,23.2,15.8,30.07,NNW,338,0.7,0.7,73,0.00,,,0.00,WUHU216HW,2013-03-03 08:20:00,
2013-03-03 03:25:00,23.0,15.7,30.08,North,0,0.0,0.7,73,0.00,,,0.00,WUHU216HW,2013-03-03 08:25:00,
2013-03-03 03:30:00,23.0,15.7,30.07,WNW,293,0.0,0.4,73,0.00,,,0.00,WUHU216HW,2013-03-03 08:30:00,
2013-03-03 03:35:00,23.0,15.4,30.07,NNW,338,0.4,0.7,72,0.00,,,0.00,WUHU216HW,2013-03-03 08:35:00,
2013-03-03 03:40:00,22.9,15.2,30.07,North,0,0.2,0.7,72,0.00,,,0.00,WUHU216HW,2013-03-03 08:40:00,
2013-03-03 03:45:00,22.9,15.2,30.07,NNW,338,0.0,0.4,72,0.00,,,0.00,WUHU216HW,2013-03-03 08:45:00,
2013-03-03 03:50:00,22.9,15.5,30.07,WNW,293,2.2,2.2,73,0.00,,,0.00,WUHU216HW,2013-03-03 08:50:00,
2013-03-03 03:55:00,23.0,15.4,30.07,NW,315,0.4,2.2,72,0.00,,,0.00,WUHU216HW,2013-03-03 08:55:00,
2013-03-03 04:00:00,22.9,15.2,30.07,NNW,338,0.7,0.9,72,0.00,,,0.00,WUHU216HW,2013-03-03 09:00:00,
2013-03-03 04:05:00,22.9,15.2,30.07,NNW,338,0.4,0.7,72,0.00,,,0.00,WUHU216HW,2013-03-03 09:05:00,
2013-03-03 04:10:00,22.7,15.0,30.07,WSW,248,0.7,0.7,72,0.00,,,0.00,WUHU216HW,2013-03-03 09:10:00,
2013-03-03 04:15:00,22.7,15.0,30.07,West,270,1.8,1.8,72,0.00,,,0.00,WUHU216HW,2013-03-03 09:15:00,
2013-03-03 04:20:00,22.7,15.3,30.07,WNW,293,0.0,1.8,73,0.00,,,0.00,WUHU216HW,2013-03-03 09:20:00,
2013-03-03 04:25:00,22.9,15.5,30.07,West,270,0.2,0.7,73,0.00,,,0.00,WUHU216HW,2013-03-03 09:25:00,
2013-03-03 04:30:00,23.0,15.7,30.06,WNW,293,0.0,0.9,73,0.00,,,0.00,WUHU216HW,2013-03-03 09:30:00,
2013-03-03 04:35:00,22.9,15.5,30.07,NNW,338,1.1,1.1,73,0.00,,,0.00,WUHU216HW,2013-03-03 09:35:00,
2013-03-03 04:40:00,22.9,15.5,30.07,WSW,248,1.1,1.1,73,0.00,,,0.00,WUHU216HW,2013-03-03 09:40:00,
2013-03-03 04:45:00,22.9,15.5,30.07,NW,315,0.0,1.1,73,0.00,,,0.00,WUHU216HW,2013-03-03 09:45:00,
2013-03-03 04:50:00,22.7,15.3,30.07,NW,315,0.4,1.1,73,0.00,,,0.00,WUHU216HW,2013-03-03 09:50:00,
2013-03-03 04:55:00,22.7,15.3,30.07,North,0,0.2,1.1,73,0.00,,,0.00,WUHU216HW,2013-03-03 09:55:00,
2013-03-03 05:00:00,22.7,15.7,30.07,NNW,338,0.2,0.9,74,0.00,,,0.00,WUHU216HW,2013-03-03 10:00:00,
2013-03-03 05:05:00,22.7,15.7,30.07,West,270,0.2,0.9,74,0.00,,,0.00,WUHU216HW,2013-03-03 10:05:00,
2013-03-03 05:10:00,22.5,15.5,30.07,NNW,338,0.0,0.9,74,0.00,,,0.00,WUHU216HW,2013-03-03 10:10:00,
2013-03-03 05:15:00,22.5,15.5,30.07,SW,225,2.9,2.9,74,0.00,,,0.00,WUHU216HW,2013-03-03 10:15:00,
2013-03-03 05:20:00,22.5,15.8,30.07,WNW,293,1.3,2.9,75,0.00,,,0.00,WUHU216HW,2013-03-03 10:20:00,
2013-03-03 05:25:00,22.5,15.8,30.07,North,0,0.4,2.9,75,0.00,,,0.00,WUHU216HW,2013-03-03 10:25:00,
2013-03-03 05:30:00,22.5,15.8,30.07,WNW,293,2.5,2.5,75,0.00,,,0.00,WUHU216HW,2013-03-03 10:30:00,
2013-03-03 05:35:00,22.3,15.6,30.07,NW,315,0.2,2.5,75,0.00,,,0.00,WUHU216HW,2013-03-03 10:35:00,
2013-03-03 05:40:00,22.1,15.4,30.07,NNW,338,1.8,1.8,75,0.00,,,0.00,WUHU216HW,2013-03-03 10:40:00,
2013-03-03 05:45:00,22.0,15.2,30.08,NNW,338,1.3,2.5,75,0.00,,,0.00,WUHU216HW,2013-03-03 10:45:00,
2013-03-03 05:50:00,21.6,14.9,30.08,North,0,0.4,2.5,75,0.00,,,0.00,WUHU216HW,2013-03-03 10:50:00,
2013-03-03 05:55:00,21.6,14.9,30.08,NNW,338,0.4,2.0,75,0.00,,,0.00,WUHU216HW,2013-03-03 10:55:00,
2013-03-03 06:00:00,21.6,14.9,30.07,WNW,293,0.4,1.8,75,0.00,,,0.00,WUHU216HW,2013-03-03 11:00:00,
2013-03-03 06:05:00,21.4,14.7,30.08,North,0,1.1,1.8,75,0.00,,,0.00,WUHU216HW,2013-03-03 11:05:00,
2013-03-03 06:10:00,21.2,14.5,30.07,NNW,338,0.4,1.3,75,0.00,,,0.00,WUHU216HW,2013-03-03 11:10:00,
2013-03-03 06:15:00,21.2,14.2,30.07,North,0,0.2,1.8,74,0.00,,,0.00,WUHU216HW,2013-03-03 11:15:00,
2013-03-03 06:20:00,21.2,14.2,30.07,SW,225,0.7,1.8,74,0.00,,,0.00,WUHU216HW,2013-03-03 11:20:00,
2013-03-03 06:25:00,21.2,14.5,30.08,WSW,248,0.0,0.9,75,0.00,,,0.00,WUHU216HW,2013-03-03 11:25:00,
2013-03-03 06:30:00,21.2,14.2,30.08,NW,315,0.2,0.9,74,0.00,,,0.00,WUHU216HW,2013-03-03 11:30:00,
2013-03-03 06:35:00,21.1,14.1,30.08,NNW,338,0.9,1.6,74,0.00,,,0.00,WUHU216HW,2013-03-03 11:35:00,
2013-03-03 06:40:00,21.1,14.1,30.08,NW,315,0.7,2.0,74,0.00,,,0.00,WUHU216HW,2013-03-03 11:40:00,
2013-03-03 06:45:00,20.5,13.5,30.08,WSW,248,0.7,2.0,74,0.00,,,0.00,WUHU216HW,2013-03-03 11:45:00,
2013-03-03 06:50:00,20.5,13.5,30.08,West,270,0.7,2.2,74,0.00,,,0.00,WUHU216HW,2013-03-03 11:50:00,
2013-03-03 06:55:00,20.2,13.2,30.08,NW,315,0.7,2.2,74,0.00,,,0.00,WUHU216HW,2013-03-03 11:55:00,
2013-03-03 07:00:00,20.2,13.2,30.08,NNW,338,0.4,0.9,74,0.00,,,0.00,WUHU216HW,2013-03-03 12:00:00,
2013-03-03 07:05:00,20.2,13.2,30.09,SW,225,0.9,0.9,74,0.00,,,0.00,WUHU216HW,2013-03-03 12:05:00,
2013-03-03 07:10:00,20.0,13.0,30.09,NW,315,2.0,2.0,74,0.00,,,0.00,WUHU216HW,2013-03-03 12:10:00,
2013-03-03 07:15:00,19.8,12.8,30.09,NNW,338,0.2,2.0,74,0.00,,,0.00,WUHU216HW,2013-03-03 12:15:00,
2013-03-03 07:20:00,20.0,13.0,30.09,NW,315,0.9,0.9,74,0.00,,,0.00,WUHU216HW,2013-03-03 12:20:00,
2013-03-03 07:25:00,19.6,12.6,30.09,NW,315,0.4,0.9,74,0.00,,,0.00,WUHU216HW,2013-03-03 12:25:00,
2013-03-03 07:30:00,19.6,12.6,30.09,NW,315,0.4,0.4,74,0.00,,,0.00,WUHU216HW,2013-03-03 12:30:00,
2013-03-03 07:35:00,19.4,12.4,30.09,NNW,338,0.4,0.4,74,0.00,,,0.00,WUHU216HW,2013-03-03 12:35:00,
2013-03-03 07:40:00,19.1,12.3,30.09,West,270,0.4,0.7,75,0.00,,,0.00,WUHU216HW,2013-03-03 12:40:00,
2013-03-03 07:45:00,19.1,12.3,30.09,WNW,293,0.0,0.7,75,0.00,,,0.00,WUHU216HW,2013-03-03 12:45:00,
2013-03-03 07:50:00,19.3,12.3,30.09,West,270,0.4,0.4,74,0.00,,,0.00,WUHU216HW,2013-03-03 12:50:00,
2013-03-03 07:55:00,19.6,12.9,30.09,North,0,0.4,0.7,75,0.00,,,0.00,WUHU216HW,2013-03-03 12:55:00,
2013-03-03 08:00:00,19.8,13.1,30.09,North,0,0.4,0.7,75,0.00,,,0.00,WUHU216HW,2013-03-03 13:00:00,
2013-03-03 08:05:00,20.0,13.0,30.09,NNW,338,0.0,0.9,74,0.00,,,0.00,WUHU216HW,2013-03-03 13:05:00,
2013-03-03 08:10:00,20.0,13.0,30.09,WNW,293,0.0,0.9,74,0.00,,,0.00,WUHU216HW,2013-03-03 13:10:00,
2013-03-03 08:15:00,20.3,13.0,30.09,NW,315,1.1,1.1,73,0.00,,,0.00,WUHU216HW,2013-03-03 13:15:00,
2013-03-03 08:20:00,20.3,12.7,30.09,NW,315,0.2,1.1,72,0.00,,,0.00,WUHU216HW,2013-03-03 13:20:00,
2013-03-03 08:25:00,20.7,13.3,30.09,WNW,293,0.4,0.4,73,0.00,,,0.00,WUHU216HW,2013-03-03 13:25:00,
2013-03-03 08:30:00,21.1,13.4,30.09,NW,315,0.4,0.7,72,0.00,,,0.00,WUHU216HW,2013-03-03 13:30:00,
2013-03-03 08:35:00,21.6,14.0,30.09,North,0,0.4,0.7,72,0.00,,,0.00,WUHU216HW,2013-03-03 13:35:00,
2013-03-03 08:40:00,22.0,14.0,30.09,NW,315,0.4,1.6,71,0.00,,,0.00,WUHU216HW,2013-03-03 13:40:00,
2013-03-03 08:45:00,22.1,14.1,30.09,NW,315,1.1,1.6,71,0.00,,,0.00,WUHU216HW,2013-03-03 13:45:00,
2013-03-03 08:50:00,22.7,14.4,30.09,NW,315,0.2,1.6,70,0.00,,,0.00,WUHU216HW,2013-03-03 13:50:00,
2013-03-03 08:55:00,23.0,14.4,30.09,East,90,1.8,1.8,69,0.00,,,0.00,WUHU216HW,2013-03-03 13:55:00,
2013-03-03 09:00:00,23.4,14.8,30.09,NNW,338,0.4,1.8,69,0.00,,,0.00,WUHU216HW,2013-03-03 14:00:00,
2013-03-03 09:05:00,23.0,14.0,30.09,WSW,248,0.4,1.1,68,0.00,,,0.00,WUHU216HW,2013-03-03 14:05:00,
2013-03-03 09:10:00,23.4,14.4,30.09,NW,315,0.0,1.6,68,0.00,,,0.00,WUHU216HW,2013-03-03 14:10:00,
2013-03-03 09:15:00,23.8,14.7,30.09,West,270,1.6,1.6,68,0.00,,,0.00,WUHU216HW,2013-03-03 14:15:00,
2013-03-03 09:20:00,24.1,15.0,30.09,NW,315,0.4,1.6,68,0.00,,,0.00,WUHU216HW,2013-03-03 14:20:00,
2013-03-03 09:25:00,23.9,14.9,30.09,NNW,338,0.4,1.8,68,0.00,,,0.00,WUHU216HW,2013-03-03 14:25:00,
2013-03-03 09:30:00,23.8,14.3,30.09,WSW,248,0.9,1.8,67,0.00,,,0.00,WUHU216HW,2013-03-03 14:30:00,
2013-03-03 09:35:00,23.8,14.3,30.09,NNW,338,0.9,2.9,67,0.00,,,0.00,WUHU216HW,2013-03-03 14:35:00,
2013-03-03 09:40:00,23.9,14.9,30.09,NW,315,0.4,3.4,68,0.00,,,0.00,WUHU216HW,2013-03-03 14:40:00,
2013-03-03 09:45:00,23.8,14.3,30.09,NW,315,1.6,3.4,67,0.00,,,0.00,WUHU216HW,2013-03-03 14:45:00,
2013-03-03 09:50:00,23.6,14.6,30.09,NNW,338,0.4,2.0,68,0.00,,,0.00,WUHU216HW,2013-03-03 14:50:00,
2013-03-03 09:55:00,24.1,14.7,30.09,West,270,3.4,3.4,67,0.00,,,0.00,WUHU216HW,2013-03-03 14:55:00,
2013-03-03 10:00:00,24.3,14.9,30.09,North,0,1.1,3.4,67,0.00,,,0.00,WUHU216HW,2013-03-03 15:00:00,
2013-03-03 10:05:00,24.5,15.0,30.09,WNW,293,1.1,1.6,67,0.00,,,0.00,WUHU216HW,2013-03-03 15:05:00,
2013-03-03 10:10:00,24.3,14.5,30.09,North,0,1.1,1.8,66,0.00,,,0.00,WUHU216HW,2013-03-03 15:10:00,
2013-03-03 10:15:00,23.9,14.1,30.09,NNW,338,1.1,2.5,66,0.00,,,0.00,WUHU216HW,2013-03-03 15:15:00,
2013-03-03 10:20:00,24.1,15.0,30.09,NW,315,0.7,3.4,68,0.00,,,0.00,WUHU216HW,2013-03-03 15:20:00,
2013-03-03 10:25:00,24.3,14.9,30.09,West,270,0.7,3.4,67,0.00,,,0.00,WUHU216HW,2013-03-03 15:25:00,
2013-03-03 10:30:00,24.5,15.0,30.09,North,0,1.6,2.9,67,0.00,,,0.00,WUHU216HW,2013-03-03 15:30:00,
2013-03-03 10:35:00,25.0,15.6,30.09,NNW,338,0.4,2.9,67,0.00,,,0.00,WUHU216HW,2013-03-03 15:35:00,
2013-03-03 10:40:00,24.8,14.7,30.09,North,0,0.4,2.5,65,0.00,,,0.00,WUHU216HW,2013-03-03 15:40:00,
2013-03-03 10:45:00,24.8,14.3,30.09,NW,315,1.3,3.4,64,0.00,,,0.00,WUHU216HW,2013-03-03 15:45:00,
2013-03-03 10:50:00,25.0,14.5,30.09,NNW,338,1.1,3.4,64,0.00,,,0.00,WUHU216HW,2013-03-03 15:50:00,
2013-03-03 10:55:00,25.6,15.4,30.09,North,0,0.0,2.5,65,0.00,,,0.00,WUHU216HW,2013-03-03 15:55:00,
2013-03-03 11:00:00,26.1,15.8,30.09,NNW,338,1.8,2.5,65,0.00,,,0.00,WUHU216HW,2013-03-03 16:00:00,
2013-03-03 11:05:00,26.3,15.3,30.09,West,270,2.0,3.4,63,0.00,,,0.00,WUHU216HW,2013-03-03 16:05:00,
2013-03-03 11:10:00,25.9,15.0,30.09,NNE,23,4.5,4.7,63,0.00,,,0.00,WUHU216HW,2013-03-03 16:10:00,
2013-03-03 11:15:00,25.6,14.7,30.08,NNW,338,1.6,4.7,63,0.00,,,0.00,WUHU216HW,2013-03-03 16:15:00,
2013-03-03 11:20:00,26.1,15.1,30.08,North,0,1.8,3.8,63,0.00,,,0.00,WUHU216HW,2013-03-03 16:20:00,
2013-03-03 11:25:00,25.9,14.7,30.08,NNE,23,2.2,2.2,62,0.00,,,0.00,WUHU216HW,2013-03-03 16:25:00,
2013-03-03 11:30:00,26.5,15.8,30.09,SW,225,1.3,2.2,64,0.00,,,0.00,WUHU216HW,2013-03-03 16:30:00,
2013-03-03 11:35:00,26.5,15.1,30.08,NNW,338,2.5,2.7,62,0.00,,,0.00,WUHU216HW,2013-03-03 16:35:00,
2013-03-03 11:40:00,26.3,14.9,30.08,NNW,338,0.7,2.7,62,0.00,,,0.00,WUHU216HW,2013-03-03 16:40:00,
2013-03-03 11:45:00,26.1,14.5,30.08,NNE,23,1.8,2.5,61,0.00,,,0.00,WUHU216HW,2013-03-03 16:45:00,
2013-03-03 11:50:00,26.5,15.5,30.08,WNW,293,1.3,2.5,63,0.00,,,0.00,WUHU216HW,2013-03-03 16:50:00,
2013-03-03 11:55:00,27.2,15.8,30.08,NNW,338,2.5,2.5,62,0.00,,,0.00,WUHU216HW,2013-03-03 16:55:00,
2013-03-03 12:00:00,27.7,16.4,30.08,SW,225,0.9,2.5,62,0.00,,,0.00,WUHU216HW,2013-03-03 17:00:00,
2013-03-03 12:05:00,27.9,15.4,30.08,NNW,338,2.5,2.5,59,0.00,,,0.00,WUHU216HW,2013-03-03 17:05:00,
2013-03-03 12:10:00,27.7,16.0,30.08,North,0,2.5,2.5,61,0.00,,,0.00,WUHU216HW,2013-03-03 17:10:00,
2013-03-03 12:15:00,28.4,16.4,30.08,North,0,1.1,2.5,60,0.00,,,0.00,WUHU216HW,2013-03-03 17:15:00,
2013-03-03 12:20:00,28.3,15.8,30.08,NNW,338,1.1,2.2,59,0.00,,,0.00,WUHU216HW,2013-03-03 17:20:00,
2013-03-03 12:25:00,28.4,15.9,30.08,NNW,338,1.1,2.2,59,0.00,,,0.00,WUHU216HW,2013-03-03 17:25:00,
2013-03-03 12:30:00,27.9,15.0,30.08,NW,315,1.1,2.2,58,0.00,,,0.00,WUHU216HW,2013-03-03 17:30:00,
2013-03-03 12:35:00,27.7,14.9,30.07,NW,315,1.1,2.0,58,0.00,,,0.00,WUHU216HW,2013-03-03 17:35:00,
2013-03-03 12:40:00,28.3,16.2,30.07,West,270,2.5,4.7,60,0.00,,,0.00,WUHU216HW,2013-03-03 17:40:00,
2013-03-03 12:45:00,28.8,17.5,30.07,SW,225,1.6,5.4,62,0.00,,,0.00,WUHU216HW,2013-03-03 17:45:00,
2013-03-03 12:50:00,29.2,16.7,30.07,WSW,248,2.0,5.4,59,0.00,,,0.00,WUHU216HW,2013-03-03 17:50:00,
2013-03-03 12:55:00,28.6,16.1,30.07,West,270,0.4,4.7,59,0.00,,,0.00,WUHU216HW,2013-03-03 17:55:00,
2013-03-03 13:00:00,28.6,16.9,30.06,North,0,1.8,4.5,61,0.00,,,0.00,WUHU216HW,2013-03-03 18:00:00,
2013-03-03 13:05:00,29.2,17.4,30.06,West,270,3.8,4.0,61,0.00,,,0.00,WUHU216HW,2013-03-03 18:05:00,
2013-03-03 13:10:00,29.3,16.4,30.06,NW,315,2.2,4.9,58,0.00,,,0.00,WUHU216HW,2013-03-03 18:10:00,
2013-03-03 13:15:00,29.2,15.8,30.06,NW,315,2.2,4.9,57,0.00,,,0.00,WUHU216HW,2013-03-03 18:15:00,
2013-03-03 13:20:00,29.2,16.2,30.06,West,270,1.8,3.4,58,0.01,,,0.01,WUHU216HW,2013-03-03 18:20:00,
2013-03-03 13:25:00,29.5,16.6,30.06,West,270,1.8,3.4,58,0.01,,,0.01,WUHU216HW,2013-03-03 18:25:00,
2013-03-03 13:30:00,29.9,16.8,30.05,WNW,293,0.7,4.0,58,0.01,,,0.01,WUHU216HW,2013-03-03 18:30:00,
2013-03-03 13:35:00,29.5,16.1,30.05,WNW,293,2.0,4.0,57,0.01,,,0.01,WUHU216HW,2013-03-03 18:35:00,
2013-03-03 13:40:00,29.0,15.7,30.05,NNW,338,0.9,3.4,57,0.01,,,0.01,WUHU216HW,2013-03-03 18:40:00,
2013-03-03 13:45:00,29.2,16.7,30.06,SSW,203,4.3,4.3,59,0.01,,,0.01,WUHU216HW,2013-03-03 18:45:00,
2013-03-03 13:50:00,29.5,16.6,30.05,SW,225,1.1,4.7,58,0.01,,,0.01,WUHU216HW,2013-03-03 18:50:00,
2013-03-03 13:55:00,28.8,15.5,30.06,NNW,338,1.6,4.7,57,0.01,,,0.01,WUHU216HW,2013-03-03 18:55:00,
2013-03-03 14:00:00,28.4,15.1,30.06,NNW,338,2.7,2.7,57,0.01,,,0.01,WUHU216HW,2013-03-03 19:00:00,
2013-03-03 14:05:00,28.4,16.4,30.05,North,0,1.3,3.1,60,0.01,,,0.01,WUHU216HW,2013-03-03 19:05:00,
2013-03-03 14:10:00,28.6,15.8,30.05,NW,315,1.1,4.0,58,0.01,,,0.01,WUHU216HW,2013-03-03 19:10:00,
2013-03-03 14:15:00,28.8,16.8,30.05,North,0,0.9,4.0,60,0.01,,,0.01,WUHU216HW,2013-03-03 19:15:00,
2013-03-03 14:20:00,29.2,16.7,30.05,WSW,248,1.8,3.4,59,0.00,,,0.01,WUHU216HW,2013-03-03 19:20:00,
2013-03-03 14:25:00,29.3,16.7,30.05,NW,315,1.3,3.4,59,0.00,,,0.01,WUHU216HW,2013-03-03 19:25:00,
2013-03-03 14:30:00,29.2,16.2,30.05,WSW,248,3.4,3.4,58,0.00,,,0.01,WUHU216HW,2013-03-03 19:30:00,
2013-03-03 14:35:00,28.6,16.1,30.05,North,0,1.6,3.8,59,0.00,,,0.01,WUHU216HW,2013-03-03 19:35:00,
2013-03-03 14:40:00,28.8,16.8,30.05,NW,315,0.2,3.8,60,0.00,,,0.01,WUHU216HW,2013-03-03 19:40:00,
2013-03-03 14:45:00,28.8,16.8,30.05,NNW,338,0.7,2.5,60,0.00,,,0.01,WUHU216HW,2013-03-03 19:45:00,
2013-03-03 14:50:00,29.0,16.8,30.05,NE,45,0.4,3.8,60,0.00,,,0.01,WUHU216HW,2013-03-03 19:50:00,
2013-03-03 14:55:00,29.2,16.7,30.05,NW,315,2.2,3.8,59,0.00,,,0.01,WUHU216HW,2013-03-03 19:55:00,
2013-03-03 15:00:00,29.0,16.5,30.05,SW,225,0.4,2.9,59,0.00,,,0.01,WUHU216HW,2013-03-03 20:00:00,
2013-03-03 15:05:00,28.6,16.6,30.05,West,270,1.6,4.7,60,0.00,,,0.01,WUHU216HW,2013-03-03 20:05:00,
2013-03-03 15:10:00,28.4,16.7,30.05,North,0,2.5,4.7,61,0.00,,,0.01,WUHU216HW,2013-03-03 20:10:00,
2013-03-03 15:15:00,27.9,15.8,30.05,West,270,1.6,4.3,60,0.00,,,0.01,WUHU216HW,2013-03-03 20:15:00,
2013-03-03 15:20:00,27.5,16.2,30.05,West,270,3.6,3.6,62,0.00,,,0.01,WUHU216HW,2013-03-03 20:20:00,
2013-03-03 15:25:00,27.7,16.4,30.05,NNW,338,0.4,3.6,62,0.00,,,0.01,WUHU216HW,2013-03-03 20:25:00,
2013-03-03 15:30:00,27.7,16.4,30.06,North,0,1.1,2.9,62,0.00,,,0.01,WUHU216HW,2013-03-03 20:30:00,
2013-03-03 15:35:00,27.9,16.2,30.06,NNW,338,2.2,2.2,61,0.00,,,0.01,WUHU216HW,2013-03-03 20:35:00,
2013-03-03 15:40:00,27.5,15.8,30.06,West,270,0.4,2.5,61,0.00,,,0.01,WUHU216HW,2013-03-03 20:40:00,
2013-03-03 15:45:00,27.5,16.2,30.06,NNE,23,0.7,4.7,62,0.00,,,0.01,WUHU216HW,2013-03-03 20:45:00,
2013-03-03 15:50:00,27.2,15.5,30.06,NNW,338,2.2,4.7,61,0.00,,,0.01,WUHU216HW,2013-03-03 20:50:00,
2013-03-03 15:55:00,27.2,15.8,30.06,NW,315,0.7,2.5,62,0.00,,,0.01,WUHU216HW,2013-03-03 20:55:00,
2013-03-03 16:00:00,27.0,15.7,30.06,NW,315,1.1,2.5,62,0.00,,,0.01,WUHU216HW,2013-03-03 21:00:00,
2013-03-03 16:05:00,27.0,15.7,30.06,NW,315,0.2,1.8,62,0.00,,,0.01,WUHU216HW,2013-03-03 21:05:00,
2013-03-03 16:10:00,27.0,15.7,30.06,North,0,1.6,1.8,62,0.00,,,0.01,WUHU216HW,2013-03-03 21:10:00,
2013-03-03 16:15:00,27.0,15.7,30.06,SW,225,0.9,2.0,62,0.00,,,0.01,WUHU216HW,2013-03-03 21:15:00,
2013-03-03 16:20:00,27.0,15.7,30.06,SSW,203,0.7,2.9,62,0.00,,,0.01,WUHU216HW,2013-03-03 21:20:00,
2013-03-03 16:25:00,27.0,15.7,30.07,North,0,2.2,2.9,62,0.00,,,0.01,WUHU216HW,2013-03-03 21:25:00,
2013-03-03 16:30:00,27.0,15.7,30.06,NNW,338,0.4,2.9,62,0.00,,,0.01,WUHU216HW,2013-03-03 21:30:00,
2013-03-03 16:35:00,26.8,15.5,30.07,NNW,338,0.9,3.8,62,0.00,,,0.01,WUHU216HW,2013-03-03 21:35:00,
2013-03-03 16:40:00,26.6,15.3,30.07,SW,225,1.1,3.8,62,0.00,,,0.01,WUHU216HW,2013-03-03 21:40:00,
2013-03-03 16:45:00,26.5,15.1,30.07,North,0,0.2,2.2,62,0.00,,,0.01,WUHU216HW,2013-03-03 21:45:00,
2013-03-03 16:50:00,26.6,15.3,30.07,NNW,338,1.6,1.8,62,0.00,,,0.01,WUHU216HW,2013-03-03 21:50:00,
2013-03-03 16:55:00,26.3,14.9,30.07,WNW,293,0.7,1.8,62,0.00,,,0.01,WUHU216HW,2013-03-03 21:55:00,
2013-03-03 17:00:00,26.3,15.3,30.07,WNW,293,1.8,1.8,63,0.00,,,0.01,WUHU216HW,2013-03-03 22:00:00,
2013-03-03 17:05:00,26.3,14.9,30.08,WNW,293,0.4,3.8,62,0.00,,,0.01,WUHU216HW,2013-03-03 22:05:00,
2013-03-03 17:10:00,26.1,15.1,30.07,NNW,338,2.0,3.8,63,0.00,,,0.01,WUHU216HW,2013-03-03 22:10:00,
2013-03-03 17:15:00,26.3,15.3,30.07,West,270,3.1,3.1,63,0.00,,,0.01,WUHU216HW,2013-03-03 22:15:00,
2013-03-03 17:20:00,26.1,14.8,30.07,NNW,338,0.2,3.1,62,0.00,,,0.01,WUHU216HW,2013-03-03 22:20:00,
2013-03-03 17:25:00,26.1,15.1,30.08,WSW,248,1.6,1.6,63,0.00,,,0.01,WUHU216HW,2013-03-03 22:25:00,
2013-03-03 17:30:00,26.3,15.3,30.08,NW,315,0.9,3.8,63,0.00,,,0.01,WUHU216HW,2013-03-03 22:30:00,
2013-03-03 17:35:00,26.1,15.1,30.07,WNW,293,0.4,3.8,63,0.00,,,0.01,WUHU216HW,2013-03-03 22:35:00,
2013-03-03 17:40:00,26.1,15.1,30.07,North,0,0.9,2.5,63,0.00,,,0.01,WUHU216HW,2013-03-03 22:40:00,
2013-03-03 17:45:00,26.1,15.1,30.07,SW,225,0.4,3.1,63,0.00,,,0.01,WUHU216HW,2013-03-03 22:45:00,
2013-03-03 17:50:00,26.3,15.7,30.08,NNW,338,0.2,3.1,64,0.00,,,0.01,WUHU216HW,2013-03-03 22:50:00,
2013-03-03 17:55:00,26.5,15.5,30.08,WSW,248,0.2,0.7,63,0.00,,,0.01,WUHU216HW,2013-03-03 22:55:00,
2013-03-03 18:00:00,26.3,15.3,30.08,NNW,338,0.4,1.1,63,0.00,,,0.01,WUHU216HW,2013-03-03 23:00:00,
2013-03-03 18:05:00,26.3,15.3,30.08,NW,315,0.4,1.3,63,0.00,,,0.01,WUHU216HW,2013-03-03 23:05:00,
2013-03-03 18:10:00,26.1,15.1,30.08,West,270,0.4,2.5,63,0.00,,,0.01,WUHU216HW,2013-03-03 23:10:00,
2013-03-03 18:15:00,26.3,15.7,30.08,SW,225,1.1,2.5,64,0.00,,,0.01,WUHU216HW,2013-03-03 23:15:00,
2013-03-03 18:20:00,26.1,15.1,30.08,WNW,293,0.7,2.5,63,0.00,,,0.01,WUHU216HW,2013-03-03 23:20:00,
2013-03-03 18:25:00,26.1,15.1,30.08,SW,225,0.0,2.5,63,0.00,,,0.01,WUHU216HW,2013-03-03 23:25:00,
2013-03-03 18:30:00,26.1,15.1,30.08,West,270,1.8,1.8,63,0.00,,,0.01,WUHU216HW,2013-03-03 23:30:00,
2013-03-03 18:35:00,26.3,15.7,30.08,NW,315,0.0,1.8,64,0.00,,,0.01,WUHU216HW,2013-03-03 23:35:00,
2013-03-03 18:40:00,26.3,15.7,30.08,NW,315,0.0,0.9,64,0.00,,,0.01,WUHU216HW,2013-03-03 23:40:00,
2013-03-03 18:45:00,26.3,15.7,30.09,West,270,0.4,0.9,64,0.00,,,0.01,WUHU216HW,2013-03-03 23:45:00,
2013-03-03 18:50:00,26.5,15.8,30.09,West,270,0.4,0.7,64,0.00,,,0.01,WUHU216HW,2013-03-03 23:50:00,
2013-03-03 18:55:00,26.6,16.0,30.09,SSW,203,0.2,1.1,64,0.00,,,0.01,WUHU216HW,2013-03-03 23:55:00,
2013-03-03 19:00:00,26.6,16.0,30.08,West,270,0.0,1.1,64,0.00,,,0.01,WUHU216HW,2013-03-04 00:00:00,
2013-03-03 19:05:00,26.3,15.7,30.08,WSW,248,0.0,0.9,64,0.00,,,0.01,WUHU216HW,2013-03-04 00:05:00,
2013-03-03 19:10:00,26.5,15.8,30.09,SSW,203,0.0,0.4,64,0.00,,,0.01,WUHU216HW,2013-03-04 00:10:00,
2013-03-03 19:15:00,26.5,16.2,30.09,NW,315,0.0,0.4,65,0.00,,,0.01,WUHU216HW,2013-03-04 00:15:00,
2013-03-03 19:20:00,26.6,16.4,30.09,West,270,0.4,1.1,65,0.00,,,0.01,WUHU216HW,2013-03-04 00:20:00,
2013-03-03 19:25:00,26.5,16.2,30.09,West,270,0.0,1.1,65,0.00,,,0.01,WUHU216HW,2013-03-04 00:25:00,
2013-03-03 19:30:00,26.6,16.4,30.09,West,270,0.4,0.4,65,0.00,,,0.01,WUHU216HW,2013-03-04 00:30:00,
2013-03-03 19:35:00,26.5,16.2,30.09,NW,315,0.2,0.4,65,0.00,,,0.01,WUHU216HW,2013-03-04 00:35:00,
2013-03-03 19:40:00,26.6,16.4,30.09,NNW,338,0.0,0.4,65,0.00,,,0.01,WUHU216HW,2013-03-04 00:40:00,
2013-03-03 19:45:00,26.8,16.6,30.09,WNW,293,0.0,0.4,65,0.00,,,0.01,WUHU216HW,2013-03-04 00:45:00,
2013-03-03 19:50:00,26.8,16.6,30.09,West,270,0.0,0.4,65,0.00,,,0.01,WUHU216HW,2013-03-04 00:50:00,
2013-03-03 19:55:00,26.6,16.4,30.09,WNW,293,0.0,0.4,65,0.00,,,0.01,WUHU216HW,2013-03-04 00:55:00,
2013-03-03 20:00:00,26.5,16.2,30.09,WSW,248,0.0,0.4,65,0.00,,,0.01,WUHU216HW,2013-03-04 01:00:00,
2013-03-03 20:05:00,26.5,16.2,30.09,NW,315,0.2,0.7,65,0.00,,,0.01,WUHU216HW,2013-03-04 01:05:00,
2013-03-03 20:10:00,26.5,16.2,30.09,NNW,338,0.7,0.7,65,0.00,,,0.01,WUHU216HW,2013-03-04 01:10:00,
2013-03-03 20:15:00,26.5,16.2,30.09,WSW,248,0.0,0.7,65,0.00,,,0.01,WUHU216HW,2013-03-04 01:15:00,
2013-03-03 20:20:00,26.5,16.2,30.09,SW,225,0.4,0.9,65,0.00,,,0.01,WUHU216HW,2013-03-04 01:20:00,
2013-03-03 20:25:00,26.5,16.2,30.09,West,270,0.4,0.9,65,0.00,,,0.01,WUHU216HW,2013-03-04 01:25:00,
2013-03-03 20:30:00,26.3,16.0,30.09,SW,225,0.2,0.7,65,0.00,,,0.01,WUHU216HW,2013-03-04 01:30:00,
2013-03-03 20:35:00,26.3,16.0,30.09,West,270,0.0,0.7,65,0.00,,,0.01,WUHU216HW,2013-03-04 01:35:00,
2013-03-03 20:40:00,26.1,15.8,30.09,West,270,0.0,0.4,65,0.00,,,0.01,WUHU216HW,2013-03-04 01:40:00,
2013-03-03 20:45:00,25.9,15.7,30.09,West,270,0.0,0.4,65,0.00,,,0.01,WUHU216HW,2013-03-04 01:45:00,
2013-03-03 20:50:00,25.7,15.6,30.09,WNW,293,0.0,0.4,65,0.00,,,0.01,WUHU216HW,2013-03-04 01:50:00,
2013-03-03 20:55:00,25.7,15.6,30.09,West,270,0.4,0.4,65,0.00,,,0.01,WUHU216HW,2013-03-04 01:55:00,
2013-03-03 21:00:00,25.6,15.4,30.09,West,270,0.4,0.4,65,0.00,,,0.01,WUHU216HW,2013-03-04 02:00:00,
2013-03-03 21:05:00,25.6,15.4,30.09,WNW,293,0.4,0.4,65,0.00,,,0.01,WUHU216HW,2013-03-04 02:05:00,
2013-03-03 21:10:00,25.4,15.2,30.09,SW,225,0.0,0.4,65,0.00,,,0.01,WUHU216HW,2013-03-04 02:10:00,
2013-03-03 21:15:00,25.4,15.2,30.09,West,270,0.2,0.4,65,0.00,,,0.01,WUHU216HW,2013-03-04 02:15:00,
2013-03-03 21:20:00,25.2,15.0,30.09,West,270,0.9,0.9,65,0.00,,,0.01,WUHU216HW,2013-03-04 02:20:00,
2013-03-03 21:25:00,25.2,15.4,30.10,NNW,338,0.0,0.9,66,0.00,,,0.01,WUHU216HW,2013-03-04 02:25:00,
2013-03-03 21:30:00,25.2,15.4,30.09,WNW,293,0.0,0.4,66,0.00,,,0.01,WUHU216HW,2013-03-04 02:30:00,
2013-03-03 21:35:00,25.0,15.2,30.10,WNW,293,0.0,0.4,66,0.00,,,0.01,WUHU216HW,2013-03-04 02:35:00,
2013-03-03 21:40:00,25.2,15.4,30.10,WNW,293,0.0,0.0,66,0.00,,,0.01,WUHU216HW,2013-03-04 02:40:00,
2013-03-03 21:45:00,25.0,15.2,30.10,WNW,293,0.0,0.0,66,0.00,,,0.01,WUHU216HW,2013-03-04 02:45:00,
2013-03-03 21:50:00,24.8,15.0,30.10,WNW,293,0.0,0.0,66,0.00,,,0.01,WUHU216HW,2013-03-04 02:50:00,
2013-03-03 21:55:00,24.8,15.0,30.10,WNW,293,0.0,0.0,66,0.00,,,0.01,WUHU216HW,2013-03-04 02:55:00,
2013-03-03 22:00:00,24.8,15.0,30.10,WNW,293,0.0,0.0,66,0.00,,,0.01,WUHU216HW,2013-03-04 03:00:00,
2013-03-03 22:05:00,24.8,15.0,30.10,WNW,293,0.0,0.0,66,0.00,,,0.01,WUHU216HW,2013-03-04 03:05:00,
2013-03-03 22:10:00,24.7,14.9,30.10,WNW,293,0.0,0.0,66,0.00,,,0.01,WUHU216HW,2013-03-04 03:10:00,
2013-03-03 22:15:00,24.7,14.9,30.10,WNW,293,0.0,0.0,66,0.00,,,0.01,WUHU216HW,2013-03-04 03:15:00,
2013-03-03 22:20:00,24.5,14.7,30.10,WNW,293,0.0,0.0,66,0.00,,,0.01,WUHU216HW,2013-03-04 03:20:00,
2013-03-03 22:25:00,24.3,14.5,30.09,WNW,293,0.0,0.0,66,0.00,,,0.01,WUHU216HW,2013-03-04 03:25:00,
2013-03-03 22:30:00,24.3,14.9,30.10,WNW,293,0.0,0.0,67,0.00,,,0.01,WUHU216HW,2013-03-04 03:30:00,
2013-03-03 22:35:00,24.1,14.7,30.10,WNW,293,0.0,0.0,67,0.00,,,0.01,WUHU216HW,2013-03-04 03:35:00,
2013-03-03 22:40:00,24.1,14.7,30.10,WSW,248,0.0,0.0,67,0.00,,,0.01,WUHU216HW,2013-03-04 03:40:00,
2013-03-03 22:45:00,24.1,14.7,30.10,West,270,0.0,0.0,67,0.00,,,0.01,WUHU216HW,2013-03-04 03:45:00,
2013-03-03 22:50:00,24.1,14.7,30.10,WSW,248,0.2,0.2,67,0.00,,,0.01,WUHU216HW,2013-03-04 03:50:00,
2013-03-03 22:55:00,23.9,14.5,30.10,WSW,248,0.0,0.2,67,0.00,,,0.01,WUHU216HW,2013-03-04 03:55:00,
2013-03-03 23:00:00,23.8,14.3,30.09,WSW,248,0.0,0.2,67,0.00,,,0.01,WUHU216HW,2013-03-04 04:00:00,
2013-03-03 23:05:00,23.6,14.2,30.10,WSW,248,0.0,0.7,67,0.00,,,0.01,WUHU216HW,2013-03-04 04:05:00,
2013-03-03 23:10:00,23.4,14.1,30.09,WNW,293,0.0,0.7,67,0.00,,,0.01,WUHU216HW,2013-03-04 04:10:00,
2013-03-03 23:15:00,23.4,14.4,30.10,WNW,293,0.0,0.0,68,0.00,,,0.01,WUHU216HW,2013-03-04 04:15:00,
2013-03-03 23:20:00,23.4,14.4,30.10,WNW,293,0.0,0.0,68,0.00,,,0.01,WUHU216HW,2013-03-04 04:20:00,
2013-03-03 23:25:00,23.2,14.2,30.10,WNW,293,0.0,0.0,68,0.00,,,0.01,WUHU216HW,2013-03-04 04:25:00,
2013-03-03 23:30:00,23.2,14.2,30.10,WSW,248,0.0,0.0,68,0.00,,,0.01,WUHU216HW,2013-03-04 04:30:00,
2013-03-03 23:35:00,23.2,14.2,30.10,WSW,248,0.0,0.2,68,0.00,,,0.01,WUHU216HW,2013-03-04 04:35:00,
2013-03-03 23:40:00,23.0,14.0,30.10,WSW,248,0.0,0.2,68,0.00,,,0.01,WUHU216HW,2013-03-04 04:40:00,
2013-03-03 23:45:00,23.0,14.0,30.10,WSW,248,0.0,0.0,68,0.00,,,0.01,WUHU216HW,2013-03-04 04:45:00,
2013-03-03 23:50:00,22.9,13.9,30.10,NW,315,0.0,0.0,68,0.00,,,0.01,WUHU216HW,2013-03-04 04:50:00,
2013-03-03 23:55:00,22.7,14.0,30.10,West,270,0.0,0.4,69,0.00,,,0.01,WUHU216HW,2013-03-04 04:55:00,